Time;durP1;ratioP1;P1;durP2;ratioP2;P2;SDS_P1;SDS_P2;PMS_P1;PMS_P2;Temp;Humidity;BMP_temperature;BMP_pressure;BME280_temperature;BME280_humidity;BME280_pressure;Samples;Min_cycle;Max_cycle;Signal;HPM_P1;HPM_P2
2023/11/07 00:02:00;;;;;;;3.92;1.67;;;;;10.20;97997.00;;;;5094586;28;20093;-63
2023/11/07 00:04:27;;;;;;;3.35;1.35;;;;;10.20;98002.00;;;;5092578;28;20091;-63
2023/11/07 00:06:53;;;;;;;2.63;1.15;;;;;10.20;98001.00;;;;5094465;28;20168;-63
2023/11/07 00:09:20;;;;;;;3.75;1.30;;;;;10.10;98000.00;;;;5094313;28;20404;-62
2023/11/07 00:11:46;;;;;;;3.72;1.00;;;;;10.10;97997.00;;;;5094318;28;20405;-65
2023/11/07 00:14:13;;;;;;;1.65;0.90;;;;;10.00;98014.00;;;;5093834;28;20060;-63
2023/11/07 00:16:39;;;;;;;4.75;2.17;;;;;10.00;98006.00;;;;5094057;28;20046;-63
2023/11/07 00:19:07;;;;;;;3.83;1.20;;;;;9.90;98007.00;;;;5093097;28;20126;-63
2023/11/07 00:21:34;;;;;;;4.65;1.15;;;;;9.90;98007.00;;;;5092896;28;20050;-63
2023/11/07 00:24:01;;;;;;;2.15;0.95;;;;;9.90;98008.00;;;;5093434;28;20051;-66
2023/11/07 00:26:28;;;;;;;2.33;1.15;;;;;9.90;98012.00;;;;5094152;28;20123;-63
2023/11/07 00:28:55;;;;;;;3.55;1.42;;;;;9.90;98013.00;;;;5094014;28;20044;-65
2023/11/07 00:31:21;;;;;;;3.47;1.23;;;;;10.00;98006.00;;;;5094262;28;20050;-64
2023/11/07 00:33:48;;;;;;;4.97;1.20;;;;;10.00;98014.00;;;;5092134;28;20054;-63
2023/11/07 00:36:16;;;;;;;2.58;0.82;;;;;10.00;98010.00;;;;5093980;28;20051;-65
2023/11/07 00:38:42;;;;;;;2.88;1.02;;;;;10.00;98014.00;;;;5093820;28;20111;-62
2023/11/07 00:41:09;;;;;;;1.88;1.05;;;;;9.90;98023.00;;;;5092649;28;20054;-63
2023/11/07 00:43:36;;;;;;;3.80;1.20;;;;;10.00;98018.00;;;;5093116;28;20591;-63
2023/11/07 00:46:03;;;;;;;3.10;1.00;;;;;10.00;98014.00;;;;5092540;28;20055;-63
2023/11/07 00:48:30;;;;;;;1.42;0.95;;;;;10.00;98009.00;;;;5092370;28;20054;-63
2023/11/07 00:50:57;;;;;;;2.22;1.40;;;;;10.00;98013.00;;;;5093716;28;20435;-63
2023/11/07 00:53:23;;;;;;;2.80;1.08;;;;;9.90;98012.00;;;;5092069;28;20040;-66
2023/11/07 00:55:50;;;;;;;4.70;1.60;;;;;9.90;98013.00;;;;5093243;28;20480;-63
2023/11/07 00:58:20;;;;;;;2.75;1.13;;;;;9.90;98013.00;;;;5093335;28;20036;-63
2023/11/07 01:00:47;;;;;;;4.55;0.95;;;;;9.90;98012.00;;;;5093485;28;20048;-63
2023/11/07 01:03:13;;;;;;;2.50;0.77;;;;;9.90;98010.00;;;;5091950;28;20052;-63
2023/11/07 01:05:40;;;;;;;2.35;1.00;;;;;9.90;98015.00;;;;5074764;28;20479;-63
2023/11/07 01:08:07;;;;;;;5.07;1.50;;;;;9.90;98007.00;;;;5093324;28;20106;-63
2023/11/07 01:10:34;;;;;;;1.77;1.10;;;;;10.00;98011.00;;;;5093259;28;20097;-62
2023/11/07 01:13:00;;;;;;;3.50;1.10;;;;;10.00;98017.00;;;;5092107;28;20072;-64
2023/11/07 01:15:27;;;;;;;4.60;1.33;;;;;10.00;98018.00;;;;5092609;28;20039;-63
2023/11/07 01:17:54;;;;;;;2.33;1.20;;;;;10.10;98015.00;;;;5091867;28;20044;-63
2023/11/07 01:20:22;;;;;;;1.70;1.20;;;;;10.10;98017.00;;;;5092883;28;20040;-65
2023/11/07 01:22:50;;;;;;;3.17;0.98;;;;;10.10;98012.00;;;;5092533;28;20075;-65
2023/11/07 01:25:16;;;;;;;2.10;0.80;;;;;10.20;98024.00;;;;5094204;28;20036;-63
2023/11/07 01:27:43;;;;;;;4.25;1.00;;;;;10.20;98018.00;;;;5093351;28;20501;-63
2023/11/07 01:30:10;;;;;;;2.50;0.90;;;;;10.20;98023.00;;;;5093962;28;20393;-63
2023/11/07 01:32:38;;;;;;;2.83;0.80;;;;;10.20;98024.00;;;;5097714;28;20047;-65
2023/11/07 01:35:05;;;;;;;2.63;1.15;;;;;10.20;98029.00;;;;5099794;28;20386;-63
2023/11/07 01:37:31;;;;;;;6.03;1.50;;;;;10.20;98032.00;;;;5101963;28;20044;-63
2023/11/07 01:39:58;;;;;;;2.03;1.00;;;;;10.20;98026.00;;;;5099750;28;20559;-63
2023/11/07 01:42:25;;;;;;;3.85;0.90;;;;;10.30;98024.00;;;;5101408;28;20039;-63
2023/11/07 01:44:51;;;;;;;1.33;1.02;;;;;10.30;98022.00;;;;5100395;28;20115;-66
2023/11/07 01:47:23;;;;;;;3.58;0.90;;;;;10.30;98018.00;;;;5100128;28;20105;-63
2023/11/07 01:49:49;;;;;;;2.17;0.95;;;;;10.40;98023.00;;;;5101858;28;20048;-66
2023/11/07 01:52:17;;;;;;;2.95;1.08;;;;;10.40;98008.00;;;;5100491;28;20445;-63
2023/11/07 01:54:46;;;;;;;2.97;0.90;;;;;10.40;98017.00;;;;5099506;28;20079;-64
2023/11/07 01:57:13;;;;;;;2.53;1.08;;;;;10.40;98017.00;;;;5099669;28;20126;-63
2023/11/07 01:59:41;;;;;;;3.45;1.00;;;;;10.40;98016.00;;;;5099105;28;20073;-63
2023/11/07 02:02:17;;;;;;;7.75;1.45;;;;;10.50;98010.00;;;;5101870;28;20165;-63
2023/11/07 02:04:45;;;;;;;2.28;1.50;;;;;10.50;98011.00;;;;5099849;28;20040;-65
2023/11/07 02:07:13;;;;;;;4.45;1.20;;;;;10.50;98012.00;;;;5099617;28;20520;-63
2023/11/07 02:09:41;;;;;;;2.58;1.17;;;;;10.40;98022.00;;;;5099576;28;20122;-63
2023/11/07 02:12:09;;;;;;;4.40;1.30;;;;;10.40;98021.00;;;;5096888;28;20044;-63
2023/11/07 02:14:36;;;;;;;9.02;1.80;;;;;10.40;98016.00;;;;5092219;28;20044;-64
2023/11/07 02:17:03;;;;;;;3.88;1.20;;;;;10.40;98014.00;;;;5091104;28;20526;-63
2023/11/07 02:19:31;;;;;;;3.33;1.17;;;;;10.50;98015.00;;;;5092172;28;20071;-63
2023/11/07 02:21:59;;;;;;;14.68;2.20;;;;;10.50;98021.00;;;;5091165;28;20050;-65
2023/11/07 02:24:30;;;;;;;2.38;1.00;;;;;10.50;98024.00;;;;5090479;28;20048;-63
2023/11/07 02:26:57;;;;;;;4.80;1.60;;;;;10.40;98025.00;;;;5091133;28;20068;-63
2023/11/07 02:29:24;;;;;;;2.33;1.25;;;;;10.50;98018.00;;;;5091253;28;20441;-63
2023/11/07 02:31:51;;;;;;;3.80;1.00;;;;;10.50;98017.00;;;;5090982;28;20441;-63
2023/11/07 02:34:18;;;;;;;5.13;1.58;;;;;10.50;98012.00;;;;5103150;28;20092;-63
2023/11/07 02:36:45;;;;;;;2.97;1.27;;;;;10.50;98030.00;;;;5091157;28;20048;-64
2023/11/07 02:39:15;;;;;;;6.22;1.23;;;;;10.50;98024.00;;;;5092325;28;20130;-63
2023/11/07 02:41:44;;;;;;;2.88;1.30;;;;;10.50;98015.00;;;;5092331;28;20044;-63
2023/11/07 02:44:11;;;;;;;2.92;1.10;;;;;10.50;98014.00;;;;5090135;28;20420;-66
2023/11/07 02:46:38;;;;;;;2.95;1.30;;;;;10.50;98015.00;;;;5091973;28;20043;-64
2023/11/07 02:49:05;;;;;;;1.48;0.93;;;;;10.50;98008.00;;;;5092096;28;20036;-63
2023/11/07 02:51:32;;;;;;;3.92;1.23;;;;;10.50;98012.00;;;;5091002;28;20044;-63
2023/11/07 02:53:59;;;;;;;4.88;1.27;;;;;10.50;98011.00;;;;5091654;28;20064;-62
2023/11/07 02:56:28;;;;;;;4.28;1.20;;;;;10.50;98004.00;;;;5090691;28;20129;-66
2023/11/07 02:58:56;;;;;;;4.38;1.00;;;;;10.50;98008.00;;;;5090676;28;20055;-63
2023/11/07 03:01:22;;;;;;;4.05;1.25;;;;;10.50;98014.00;;;;5091812;28;20048;-62
2023/11/07 03:03:49;;;;;;;2.50;1.27;;;;;10.40;98015.00;;;;5092655;28;20082;-63
2023/11/07 03:06:17;;;;;;;2.47;1.25;;;;;10.40;98009.00;;;;5095907;28;20036;-63
2023/11/07 03:08:44;;;;;;;1.88;1.20;;;;;10.40;98013.00;;;;5094251;28;20413;-63
2023/11/07 03:11:11;;;;;;;5.82;2.03;;;;;10.40;98006.00;;;;5094340;28;20051;-63
2023/11/07 03:13:38;;;;;;;9.70;1.10;;;;;10.50;98009.00;;;;5095118;28;20097;-64
2023/11/07 03:16:06;;;;;;;4.47;1.40;;;;;10.50;98009.00;;;;5095507;28;20042;-63
2023/11/07 03:18:32;;;;;;;9.00;1.73;;;;;10.50;98005.00;;;;5096256;28;20093;-63
2023/11/07 03:20:59;;;;;;;4.00;1.40;;;;;10.50;98012.00;;;;5095735;28;20454;-63
2023/11/07 03:23:26;;;;;;;7.95;1.30;;;;;10.50;98012.00;;;;5096693;28;20044;-63
2023/11/07 03:25:52;;;;;;;3.80;1.35;;;;;10.50;98011.00;;;;5096464;28;20059;-65
2023/11/07 03:28:20;;;;;;;1.85;1.20;;;;;10.50;98011.00;;;;5095555;28;20048;-62
2023/11/07 03:30:47;;;;;;;5.13;1.48;;;;;10.50;98018.00;;;;5096911;28;20036;-63
2023/11/07 03:33:17;;;;;;;5.70;1.40;;;;;10.50;98016.00;;;;5097188;28;20052;-62
2023/11/07 03:35:46;;;;;;;4.45;1.58;;;;;10.40;98012.00;;;;5096127;28;20032;-62
2023/11/07 03:38:13;;;;;;;4.22;1.40;;;;;10.40;98013.00;;;;5097208;28;20044;-63
2023/11/07 03:40:40;;;;;;;3.13;1.10;;;;;10.40;98014.00;;;;5096104;28;20127;-61
2023/11/07 03:43:07;;;;;;;2.88;1.40;;;;;10.40;98015.00;;;;5095677;28;20122;-64
2023/11/07 03:45:34;;;;;;;4.43;1.40;;;;;10.40;98014.00;;;;5093789;28;20045;-61
2023/11/07 03:48:01;;;;;;;4.80;1.30;;;;;10.40;98008.00;;;;5095736;28;20530;-62
2023/11/07 03:50:29;;;;;;;2.38;1.08;;;;;10.40;98012.00;;;;5095833;28;20068;-62
2023/11/07 03:52:57;;;;;;;5.55;1.27;;;;;10.40;98012.00;;;;5095118;28;20044;-64
2023/11/07 03:55:23;;;;;;;2.70;1.20;;;;;10.50;98016.00;;;;5095096;28;20130;-64
2023/11/07 03:57:50;;;;;;;1.30;0.88;;;;;10.50;98022.00;;;;5095586;28;20070;-64
2023/11/07 04:00:19;;;;;;;4.05;1.35;;;;;10.50;98025.00;;;;5094202;28;20500;-64
2023/11/07 04:02:46;;;;;;;3.58;1.08;;;;;10.50;98028.00;;;;5094952;28;20044;-65
2023/11/07 04:05:13;;;;;;;2.17;1.02;;;;;10.50;98017.00;;;;5094054;28;20677;-64
2023/11/07 04:07:40;;;;;;;3.00;1.17;;;;;10.50;98024.00;;;;5094635;28;20044;-63
2023/11/07 04:10:07;;;;;;;3.85;1.30;;;;;10.40;98022.00;;;;5094513;28;20075;-65
2023/11/07 04:12:34;;;;;;;2.25;1.00;;;;;10.40;98018.00;;;;5094519;28;20050;-64
2023/11/07 04:15:06;;;;;;;5.40;1.30;;;;;10.40;98029.00;;;;5093532;28;20044;-64
2023/11/07 04:17:33;;;;;;;5.40;1.30;;;;;10.40;98018.00;;;;5094474;28;20123;-64
2023/11/07 04:20:01;;;;;;;4.60;1.25;;;;;10.40;98014.00;;;;5094236;28;20497;-65
2023/11/07 04:22:30;;;;;;;4.55;1.42;;;;;10.40;98027.00;;;;5093164;28;20035;-64
2023/11/07 04:24:57;;;;;;;4.80;1.30;;;;;10.40;98016.00;;;;5093621;28;20046;-67
2023/11/07 04:27:23;;;;;;;2.53;1.20;;;;;10.40;98027.00;;;;5092949;28;20068;-64
2023/11/07 04:29:50;;;;;;;4.13;1.33;;;;;10.40;98033.00;;;;5094122;28;20044;-63
2023/11/07 04:32:17;;;;;;;4.38;1.13;;;;;10.40;98028.00;;;;5094659;28;20048;-64
2023/11/07 04:34:44;;;;;;;3.25;1.35;;;;;10.50;98031.00;;;;5093414;28;20055;-65
2023/11/07 04:37:10;;;;;;;1.80;1.30;;;;;10.50;98027.00;;;;5092733;28;20135;-64
2023/11/07 04:39:40;;;;;;;1.70;1.17;;;;;10.50;98034.00;;;;5092740;28;20521;-64
2023/11/07 04:42:10;;;;;;;6.00;1.55;;;;;10.40;98026.00;;;;5094105;28;20067;-64
2023/11/07 04:44:37;;;;;;;2.97;1.02;;;;;10.40;98026.00;;;;5093189;28;20040;-65
2023/11/07 04:47:05;;;;;;;2.28;1.63;;;;;10.30;98023.00;;;;5094093;28;20052;-64
2023/11/07 04:49:32;;;;;;;4.72;1.10;;;;;10.30;98015.00;;;;5093745;28;20055;-65
2023/11/07 04:51:59;;;;;;;4.25;1.40;;;;;10.30;98015.00;;;;5093893;28;20040;-64
2023/11/07 04:54:28;;;;;;;2.20;1.10;;;;;10.30;98022.00;;;;5093037;28;20097;-64
2023/11/07 04:56:55;;;;;;;2.63;1.10;;;;;10.30;98016.00;;;;5093825;28;20488;-64
2023/11/07 04:59:25;;;;;;;5.07;1.27;;;;;10.30;98017.00;;;;5092432;28;20481;-66
2023/11/07 05:01:55;;;;;;;3.60;1.10;;;;;10.40;98025.00;;;;5093467;28;20473;-66
2023/11/07 05:04:21;;;;;;;3.88;1.30;;;;;10.40;98027.00;;;;5092865;28;20048;-65
2023/11/07 05:06:48;;;;;;;1.60;1.17;;;;;10.40;98032.00;;;;5093981;28;20047;-66
2023/11/07 05:09:15;;;;;;;1.35;1.10;;;;;10.30;98033.00;;;;5093485;28;20052;-65
2023/11/07 05:11:43;;;;;;;6.43;1.27;;;;;10.20;98036.00;;;;5092118;28;20075;-64
2023/11/07 05:14:10;;;;;;;1.20;1.10;;;;;10.10;98038.00;;;;5092821;28;20040;-63
2023/11/07 05:16:37;;;;;;;3.83;1.00;;;;;10.10;98035.00;;;;5093297;28;20119;-65
2023/11/07 05:19:05;;;;;;;3.67;1.15;;;;;10.10;98026.00;;;;5093078;28;20048;-64
2023/11/07 05:21:31;;;;;;;4.00;0.82;;;;;10.20;98036.00;;;;5093108;28;20046;-63
2023/11/07 05:23:58;;;;;;;3.70;1.20;;;;;10.20;98036.00;;;;5092376;28;20051;-67
2023/11/07 05:26:25;;;;;;;3.80;1.00;;;;;10.20;98038.00;;;;5092663;28;20498;-65
2023/11/07 05:28:52;;;;;;;5.25;1.08;;;;;10.20;98033.00;;;;5093019;28;20044;-65
2023/11/07 05:31:22;;;;;;;2.97;1.13;;;;;10.20;98026.00;;;;5093053;28;20408;-64
2023/11/07 05:33:49;;;;;;;1.77;1.17;;;;;10.20;98034.00;;;;5092291;28;20081;-65
2023/11/07 05:36:16;;;;;;;2.55;1.15;;;;;10.20;98022.00;;;;5092961;28;20112;-65
2023/11/07 05:38:47;;;;;;;0.95;0.90;;;;;10.10;98025.00;;;;5091408;28;20061;-66
2023/11/07 05:41:14;;;;;;;11.30;1.58;;;;;10.10;98027.00;;;;5092662;28;20055;-65
2023/11/07 05:43:40;;;;;;;2.35;1.30;;;;;10.10;98015.00;;;;5092108;28;20040;-64
2023/11/07 05:46:08;;;;;;;3.50;1.30;;;;;10.10;98014.00;;;;5091517;28;20139;-65
2023/11/07 05:48:36;;;;;;;3.35;1.17;;;;;10.20;98030.00;;;;5092583;28;20145;-65
2023/11/07 05:51:03;;;;;;;3.35;0.90;;;;;10.20;98030.00;;;;5092645;28;20051;-65
2023/11/07 05:53:30;;;;;;;2.45;1.10;;;;;10.10;98025.00;;;;5091921;28;20043;-65
2023/11/07 05:55:56;;;;;;;6.38;1.30;;;;;10.10;98030.00;;;;5091219;28;20478;-64
2023/11/07 05:58:23;;;;;;;2.65;1.10;;;;;10.10;98034.00;;;;5092240;28;20043;-65
2023/11/07 06:00:50;;;;;;;3.20;1.00;;;;;10.10;98021.00;;;;5092462;28;20137;-65
2023/11/07 06:03:16;;;;;;;2.13;0.90;;;;;10.10;98031.00;;;;5092364;28;20048;-65
2023/11/07 06:05:43;;;;;;;2.10;1.20;;;;;10.10;98025.00;;;;5091644;28;20114;-65
2023/11/07 06:08:12;;;;;;;3.45;1.20;;;;;10.10;98035.00;;;;5091074;28;20040;-65
2023/11/07 06:10:39;;;;;;;1.38;0.85;;;;;10.10;98030.00;;;;5092203;28;20089;-65
2023/11/07 06:13:05;;;;;;;1.95;1.00;;;;;10.10;98026.00;;;;5092153;28;20044;-65
2023/11/07 06:15:32;;;;;;;3.47;0.80;;;;;10.10;98037.00;;;;5091560;28;20044;-65
2023/11/07 06:17:59;;;;;;;2.05;0.80;;;;;10.10;98040.00;;;;5092235;28;20044;-65
2023/11/07 06:20:26;;;;;;;2.97;1.20;;;;;10.10;98035.00;;;;5073831;28;20052;-64
2023/11/07 06:22:52;;;;;;;2.22;0.93;;;;;10.10;98030.00;;;;5092057;28;20059;-65
2023/11/07 06:25:19;;;;;;;2.35;0.98;;;;;10.10;98032.00;;;;5091355;28;20093;-65
2023/11/07 06:27:47;;;;;;;1.83;1.17;;;;;10.10;98036.00;;;;5092073;28;20101;-64
2023/11/07 06:30:18;;;;;;;3.10;1.42;;;;;10.10;98030.00;;;;5091924;28;20051;-64
2023/11/07 06:32:45;;;;;;;3.10;1.10;;;;;10.10;98045.00;;;;5092048;28;20058;-65
2023/11/07 06:35:14;;;;;;;4.53;1.10;;;;;10.20;98038.00;;;;5090035;28;20051;-64
2023/11/07 06:37:41;;;;;;;3.25;1.17;;;;;10.20;98043.00;;;;5093224;28;20094;-65
2023/11/07 06:40:14;;;;;;;2.60;0.93;;;;;10.20;98047.00;;;;5095964;28;20040;-65
2023/11/07 06:42:45;;;;;;;1.40;0.90;;;;;10.20;98042.00;;;;5096172;28;20044;-65
2023/11/07 06:45:13;;;;;;;1.20;1.05;;;;;10.20;98041.00;;;;5095410;28;20048;-65
2023/11/07 06:47:42;;;;;;;2.00;0.90;;;;;10.20;98052.00;;;;5095927;28;20048;-65
2023/11/07 06:50:10;;;;;;;6.28;0.80;;;;;10.20;98053.00;;;;5095886;28;20416;-65
2023/11/07 06:52:48;;;;;;;1.50;1.15;;;;;10.20;98064.00;;;;5095929;28;20119;-65
2023/11/07 06:55:15;;;;;;;4.65;1.20;;;;;10.20;98061.00;;;;5095220;28;20071;-65
2023/11/07 06:57:42;;;;;;;1.38;1.10;;;;;10.20;98061.00;;;;5095788;28;20056;-65
2023/11/07 07:00:09;;;;;;;1.65;0.80;;;;;10.20;98062.00;;;;5094358;28;20075;-65
2023/11/07 07:02:40;;;;;;;2.25;1.00;;;;;10.20;98063.00;;;;5094402;28;20048;-64
2023/11/07 07:05:12;;;;;;;2.38;0.80;;;;;10.20;98070.00;;;;5093734;28;20040;-64
2023/11/07 07:07:40;;;;;;;3.50;1.10;;;;;10.30;98076.00;;;;5095762;28;20051;-65
2023/11/07 07:10:09;;;;;;;3.42;1.48;;;;;10.30;98076.00;;;;5095391;28;20047;-64
2023/11/07 07:12:39;;;;;;;4.00;1.30;;;;;10.30;98077.00;;;;5094369;28;20074;-65
2023/11/07 07:15:06;;;;;;;1.83;1.15;;;;;10.30;98082.00;;;;5095086;28;20048;-65
2023/11/07 07:17:33;;;;;;;1.23;0.90;;;;;10.30;98084.00;;;;5095535;28;20048;-65
2023/11/07 07:19:59;;;;;;;2.30;0.82;;;;;10.30;98082.00;;;;5095241;28;20119;-64
2023/11/07 07:22:28;;;;;;;2.70;1.08;;;;;10.30;98081.00;;;;5095494;28;20036;-64
2023/11/07 07:24:55;;;;;;;2.80;1.35;;;;;10.40;98079.00;;;;5093289;28;20138;-63
2023/11/07 07:27:26;;;;;;;2.15;1.00;;;;;10.40;98082.00;;;;5095338;28;20099;-64
2023/11/07 07:29:54;;;;;;;1.85;0.85;;;;;10.50;98092.00;;;;5095264;28;20048;-63
2023/11/07 07:32:20;;;;;;;2.75;0.82;;;;;10.50;98089.00;;;;5095282;28;20044;-65
2023/11/07 07:34:49;;;;;;;1.25;0.80;;;;;10.50;98087.00;;;;5094639;28;20115;-64
2023/11/07 07:37:20;;;;;;;2.15;0.80;;;;;10.50;98095.00;;;;5095525;28;20115;-64
2023/11/07 07:39:47;;;;;;;2.65;1.10;;;;;10.50;98080.00;;;;5094944;28;20060;-64
2023/11/07 07:42:17;;;;;;;5.18;1.40;;;;;10.60;98097.00;;;;5095031;28;20119;-63
2023/11/07 07:44:44;;;;;;;0.80;0.80;;;;;10.60;98101.00;;;;5094268;28;20035;-65
2023/11/07 07:47:11;;;;;;;3.90;0.93;;;;;10.70;98103.00;;;;5094683;28;20040;-65
2023/11/07 07:49:40;;;;;;;1.55;0.80;;;;;10.60;98101.00;;;;5094245;28;20054;-65
2023/11/07 07:52:09;;;;;;;10.05;1.20;;;;;10.60;98105.00;;;;5094958;28;20087;-65
2023/11/07 07:54:37;;;;;;;1.33;0.80;;;;;10.60;98101.00;;;;5094207;28;20050;-65
2023/11/07 07:57:23;;;;;;;2.45;1.17;;;;;10.70;98116.00;;;;5094730;28;20404;-65
2023/11/07 07:59:50;;;;;;;0.98;0.80;;;;;10.80;98108.00;;;;5094570;28;20554;-65
2023/11/07 08:02:17;;;;;;;1.85;0.90;;;;;10.80;98101.00;;;;5094548;28;20046;-65
2023/11/07 08:04:46;;;;;;;0.85;0.80;;;;;10.90;98112.00;;;;5093853;28;20105;-65
2023/11/07 08:07:16;;;;;;;0.95;0.70;;;;;10.90;98110.00;;;;5093178;28;20051;-64
2023/11/07 08:09:44;;;;;;;0.90;0.70;;;;;10.90;98111.00;;;;5094437;28;20097;-65
2023/11/07 08:12:12;;;;;;;1.52;0.88;;;;;10.80;98111.00;;;;5094449;28;20432;-64
2023/11/07 08:14:40;;;;;;;1.63;1.05;;;;;10.80;98112.00;;;;5092602;28;20101;-65
2023/11/07 08:17:09;;;;;;;1.67;0.80;;;;;10.80;98122.00;;;;5094380;28;20489;-65
2023/11/07 08:19:36;;;;;;;1.25;0.75;;;;;10.80;98114.00;;;;5094165;28;20055;-65
2023/11/07 08:22:06;;;;;;;0.77;0.70;;;;;10.80;98111.00;;;;5094270;28;20048;-65
2023/11/07 08:24:34;;;;;;;1.73;0.90;;;;;10.80;98118.00;;;;5093670;28;20540;-65
2023/11/07 08:27:00;;;;;;;2.00;1.00;;;;;10.80;98115.00;;;;5094075;28;20115;-65
2023/11/07 08:29:27;;;;;;;2.15;0.90;;;;;10.90;98117.00;;;;5094058;28;20550;-64
2023/11/07 08:31:54;;;;;;;1.52;0.80;;;;;10.90;98122.00;;;;5093995;28;20397;-65
2023/11/07 08:34:22;;;;;;;1.02;0.75;;;;;10.90;98127.00;;;;5093529;28;20500;-64
2023/11/07 08:36:49;;;;;;;2.55;1.35;;;;;10.90;98131.00;;;;5093990;28;20036;-64
2023/11/07 08:39:33;;;;;;;1.42;0.98;;;;;11.00;98131.00;;;;5092910;28;20040;-65
2023/11/07 08:42:00;;;;;;;0.82;0.65;;;;;11.10;98128.00;;;;5094033;28;20043;-64
2023/11/07 08:44:26;;;;;;;2.58;0.88;;;;;11.00;98141.00;;;;5093353;28;20047;-65
2023/11/07 08:46:53;;;;;;;1.45;0.70;;;;;11.00;98136.00;;;;5093964;28;20048;-65
2023/11/07 08:49:21;;;;;;;1.10;0.80;;;;;10.90;98146.00;;;;5093718;28;20080;-65
2023/11/07 08:51:51;;;;;;;1.17;0.85;;;;;11.00;98139.00;;;;5093947;28;20075;-64
2023/11/07 08:54:18;;;;;;;0.70;0.70;;;;;10.90;98149.00;;;;5092979;28;20409;-65
2023/11/07 08:56:49;;;;;;;1.70;1.10;;;;;11.00;98143.00;;;;5093524;28;20040;-65
2023/11/07 08:59:17;;;;;;;0.50;0.50;;;;;11.10;98149.00;;;;5093717;28;20035;-65
2023/11/07 09:01:47;;;;;;;1.90;0.80;;;;;11.10;98147.00;;;;5092601;28;20044;-64
2023/11/07 09:04:14;;;;;;;1.27;0.80;;;;;11.30;98133.00;;;;5092800;28;20051;-65
2023/11/07 09:06:41;;;;;;;1.38;0.85;;;;;11.50;98145.00;;;;5093404;28;20036;-65
2023/11/07 09:09:08;;;;;;;1.42;0.80;;;;;11.60;98149.00;;;;5093415;28;20165;-66
2023/11/07 09:11:35;;;;;;;1.20;0.60;;;;;11.50;98148.00;;;;5093440;28;20064;-64
2023/11/07 09:14:01;;;;;;;1.05;0.95;;;;;11.60;98153.00;;;;5092754;28;20048;-64
2023/11/07 09:16:29;;;;;;;1.33;0.68;;;;;11.70;98161.00;;;;5093160;28;20036;-64
2023/11/07 09:18:55;;;;;;;0.70;0.60;;;;;11.80;98157.00;;;;5093041;28;20044;-64
2023/11/07 09:21:22;;;;;;;0.68;0.65;;;;;11.80;98157.00;;;;5092879;28;20048;-64
2023/11/07 09:23:50;;;;;;;0.85;0.60;;;;;11.70;98162.00;;;;5092593;28;20036;-65
2023/11/07 09:26:17;;;;;;;1.33;0.70;;;;;11.60;98164.00;;;;5091890;28;20119;-63
2023/11/07 09:28:44;;;;;;;1.17;1.00;;;;;11.80;98162.00;;;;5091752;28;20083;-63
2023/11/07 09:31:12;;;;;;;1.30;0.80;;;;;11.90;98163.00;;;;5093052;28;20074;-63
2023/11/07 09:33:39;;;;;;;0.63;0.63;;;;;11.90;98170.00;;;;5092393;28;20040;-63
2023/11/07 09:36:06;;;;;;;2.15;0.70;;;;;11.80;98170.00;;;;5092710;28;20378;-63
2023/11/07 09:38:33;;;;;;;1.55;0.60;;;;;11.80;98171.00;;;;5092693;28;20058;-63
2023/11/07 09:41:17;;;;;;;2.65;0.85;;;;;11.80;98169.00;;;;5092900;28;20503;-63
2023/11/07 09:43:45;;;;;;;0.93;0.65;;;;;11.70;98182.00;;;;5092181;28;20169;-63
2023/11/07 09:46:12;;;;;;;0.82;0.60;;;;;11.70;98175.00;;;;5091399;28;20040;-63
2023/11/07 09:48:39;;;;;;;1.02;0.70;;;;;11.80;98181.00;;;;5092624;28;20075;-62
2023/11/07 09:51:09;;;;;;;1.65;0.82;;;;;11.80;98181.00;;;;5092475;28;20052;-63
2023/11/07 09:53:37;;;;;;;2.53;1.00;;;;;11.80;98178.00;;;;5091927;28;20048;-63
2023/11/07 09:56:05;;;;;;;2.17;0.70;;;;;11.90;98179.00;;;;5092494;28;20047;-64
2023/11/07 09:58:32;;;;;;;0.60;0.50;;;;;12.00;98173.00;;;;5092537;28;20043;-63
2023/11/07 10:01:00;;;;;;;1.45;0.98;;;;;12.20;98173.00;;;;5092480;28;20115;-63
2023/11/07 10:03:26;;;;;;;1.40;0.75;;;;;12.20;98184.00;;;;5090746;28;20121;-67
2023/11/07 10:05:56;;;;;;;2.10;0.80;;;;;12.20;98178.00;;;;5092078;28;20155;-63
2023/11/07 10:08:23;;;;;;;1.75;0.88;;;;;12.20;98175.00;;;;5091058;28;20138;-63
2023/11/07 10:11:09;;;;;;;1.65;0.63;;;;;12.40;98172.00;;;;5092402;28;20051;-63
2023/11/07 10:13:36;;;;;;;1.52;0.70;;;;;12.60;98168.00;;;;5091827;28;20048;-64
2023/11/07 10:16:07;;;;;;;0.70;0.70;;;;;12.90;98172.00;;;;5090705;28;20068;-63
2023/11/07 10:18:47;;;;;;;1.08;0.73;;;;;13.00;98169.00;;;;5092528;28;20050;-63
2023/11/07 10:21:29;;;;;;;1.13;0.77;;;;;12.90;98179.00;;;;5092170;28;20385;-63
2023/11/07 10:23:57;;;;;;;1.13;0.80;;;;;12.80;98181.00;;;;5091749;28;20071;-63
2023/11/07 10:26:24;;;;;;;3.22;0.80;;;;;12.80;98181.00;;;;5092073;28;20044;-63
2023/11/07 10:29:13;;;;;;;0.40;0.40;;;;;12.70;98189.00;;;;5092129;28;20048;-64
2023/11/07 10:31:57;;;;;;;;;;;;;12.60;98193.00;;;;5075369;28;20101;-64
2023/11/07 10:34:25;;;;;;;1.75;0.80;;;;;12.60;98180.00;;;;5091402;28;19923;-63
2023/11/07 10:36:52;;;;;;;0.50;0.50;;;;;12.60;98183.00;;;;5092079;28;20048;-64
2023/11/07 10:39:25;;;;;;;1.75;0.77;;;;;12.80;98181.00;;;;5091907;28;20043;-65
2023/11/07 10:41:54;;;;;;;0.90;0.50;;;;;12.90;98181.00;;;;5092338;28;20466;-64
2023/11/07 10:44:28;;;;;;;0.88;0.70;;;;;13.00;98179.00;;;;5091312;28;20492;-65
2023/11/07 10:47:00;;;;;;;1.38;0.50;;;;;12.90;98189.00;;;;5091886;28;20068;-63
2023/11/07 10:49:30;;;;;;;0.45;0.45;;;;;12.80;98192.00;;;;5091900;28;20493;-63
2023/11/07 10:52:00;;;;;;;0.50;0.50;;;;;12.80;98190.00;;;;5091853;28;20040;-65
2023/11/07 10:54:30;;;;;;;0.60;0.60;;;;;12.80;98191.00;;;;5091403;28;20123;-64
2023/11/07 10:57:09;;;;;;;2.92;0.60;;;;;12.70;98177.00;;;;5091926;28;20040;-63
2023/11/07 10:59:41;;;;;;;1.00;0.52;;;;;12.70;98181.00;;;;5091745;28;20051;-63
2023/11/07 11:02:10;;;;;;;2.15;0.52;;;;;12.80;98189.00;;;;5091862;28;20119;-64
2023/11/07 11:04:38;;;;;;;0.98;0.50;;;;;12.90;98187.00;;;;5089959;28;20050;-64
2023/11/07 11:07:07;;;;;;;1.20;0.73;;;;;13.00;98181.00;;;;5091651;28;20072;-64
2023/11/07 11:09:38;;;;;;;0.50;0.50;;;;;13.20;98180.00;;;;5091890;28;20040;-63
2023/11/07 11:12:08;;;;;;;2.83;0.60;;;;;13.20;98189.00;;;;5092801;28;20085;-64
2023/11/07 11:14:34;;;;;;;1.35;0.50;;;;;13.10;98194.00;;;;5092173;28;20127;-64
2023/11/07 11:17:39;;;;;;;2.17;0.70;;;;;13.20;98180.00;;;;5091731;28;20044;-64
2023/11/07 11:20:09;;;;;;;;;;;;;13.20;98195.00;;;;5047593;28;20135;-66
2023/11/07 11:22:43;;;;;;;0.88;0.57;;;;;13.00;98197.00;;;;5090538;28;19924;-64
2023/11/07 11:25:26;;;;;;;0.50;0.50;;;;;12.70;98194.00;;;;5094207;28;20135;-64
2023/11/07 11:28:00;;;;;;;0.50;0.50;;;;;12.70;98190.00;;;;5094079;28;20058;-66
2023/11/07 11:30:31;;;;;;;0.73;0.65;;;;;12.70;98201.00;;;;5096695;28;20408;-64
2023/11/07 11:33:11;;;;;;;0.50;0.50;;;;;12.80;98194.00;;;;5094541;28;20681;-64
2023/11/07 11:35:40;;;;;;;2.28;0.70;;;;;12.80;98186.00;;;;5094793;28;20439;-66
2023/11/07 11:38:16;;;;;;;0.98;0.55;;;;;12.90;98189.00;;;;5095264;28;20036;-64
2023/11/07 11:40:57;;;;;;;0.77;0.60;;;;;12.90;98192.00;;;;5095250;28;20044;-66
2023/11/07 11:43:34;;;;;;;0.40;0.40;;;;;12.80;98195.00;;;;5094925;28;20162;-66
2023/11/07 11:46:11;;;;;;;2.03;0.88;;;;;12.80;98196.00;;;;5095181;28;20124;-65
2023/11/07 11:48:49;;;;;;;0.70;0.63;;;;;12.90;98193.00;;;;5095435;28;20066;-66
2023/11/07 11:51:33;;;;;;;2.28;0.80;;;;;12.90;98185.00;;;;5095300;28;20115;-66
2023/11/07 11:54:00;;;;;;;2.83;0.70;;;;;12.80;98186.00;;;;5094295;28;20118;-66
2023/11/07 11:56:28;;;;;;;1.05;0.60;;;;;12.70;98191.00;;;;5093614;28;20051;-66
2023/11/07 11:59:09;;;;;;;0.80;0.80;;;;;12.70;98181.00;;;;5094742;28;20036;-66
2023/11/07 12:01:55;;;;;;;1.55;0.70;;;;;12.60;98187.00;;;;5093582;28;20044;-64
2023/11/07 12:04:38;;;;;;;0.73;0.70;;;;;12.70;98181.00;;;;5094028;28;20073;-66
2023/11/07 12:07:14;;;;;;;1.85;0.90;;;;;12.80;98175.00;;;;5094761;28;20066;-66
2023/11/07 12:09:47;;;;;;;2.35;0.90;;;;;12.90;98192.00;;;;5094605;28;20114;-66
2023/11/07 12:12:15;;;;;;;4.20;0.90;;;;;13.00;98193.00;;;;5094606;28;20097;-66
2023/11/07 12:14:59;;;;;;;1.38;0.80;;;;;13.10;98186.00;;;;5093831;28;20318;-65
2023/11/07 12:17:51;;;;;;;2.58;1.48;;;;;13.20;98185.00;;;;5094395;28;20044;-65
2023/11/07 12:20:17;;;;;;;2.47;0.80;;;;;13.20;98182.00;;;;5094580;28;20416;-66
2023/11/07 12:22:48;;;;;;;1.17;0.82;;;;;13.50;98178.00;;;;5094300;28;20489;-66
2023/11/07 12:25:19;;;;;;;1.60;0.70;;;;;13.70;98184.00;;;;5093646;28;20436;-65
2023/11/07 12:28:03;;;;;;;2.08;1.00;;;;;13.70;98182.00;;;;5094097;28;20043;-66